sensor_id;sensor_type;location;lat;lon;timestamp;temperature;humidity
25914;DHT22;13718;50.922;5.346;2023-05-14T00:00:53;14.20;99.90
25914;DHT22;13718;50.922;5.346;2023-05-14T00:03:18;14.30;99.90
25914;DHT22;13718;50.922;5.346;2023-05-14T00:05:44;14.70;99.90
25914;DHT22;13718;50.922;5.346;2023-05-14T00:08:10;14.80;99.90
25914;DHT22;13718;50.922;5.346;2023-05-14T00:10:35;14.70;99.90
25914;DHT22;13718;50.922;5.346;2023-05-14T00:13:01;14.50;99.90
25914;DHT22;13718;50.922;5.346;2023-05-14T00:15:26;14.30;99.90
25914;DHT22;13718;50.922;5.346;2023-05-14T00:17:52;14.20;99.90
25914;DHT22;13718;50.922;5.346;2023-05-14T00:20:18;14.30;99.90
25914;DHT22;13718;50.922;5.346;2023-05-14T00:22:43;14.10;99.90
25914;DHT22;13718;50.922;5.346;2023-05-14T00:25:09;14.00;99.90
25914;DHT22;13718;50.922;5.346;2023-05-14T00:27:35;13.90;99.90
25914;DHT22;13718;50.922;5.346;2023-05-14T00:30:03;13.80;99.90
25914;DHT22;13718;50.922;5.346;2023-05-14T00:32:30;13.80;99.90
25914;DHT22;13718;50.922;5.346;2023-05-14T00:34:56;13.80;99.90
25914;DHT22;13718;50.922;5.346;2023-05-14T00:37:22;13.90;99.90
25914;DHT22;13718;50.922;5.346;2023-05-14T00:39:47;14.00;99.90
25914;DHT22;13718;50.922;5.346;2023-05-14T00:42:13;14.00;99.90
25914;DHT22;13718;50.922;5.346;2023-05-14T00:44:39;13.80;99.90
25914;DHT22;13718;50.922;5.346;2023-05-14T00:47:05;13.60;99.90
25914;DHT22;13718;50.922;5.346;2023-05-14T00:49:31;13.40;99.90
25914;DHT22;13718;50.922;5.346;2023-05-14T00:51:56;13.40;99.90
25914;DHT22;13718;50.922;5.346;2023-05-14T00:54:25;13.30;99.90
25914;DHT22;13718;50.922;5.346;2023-05-14T00:56:51;13.30;99.90
25914;DHT22;13718;50.922;5.346;2023-05-14T00:59:18;13.30;99.90
25914;DHT22;13718;50.922;5.346;2023-05-14T01:01:43;13.20;99.90
25914;DHT22;13718;50.922;5.346;2023-05-14T01:04:10;13.20;99.90
25914;DHT22;13718;50.922;5.346;2023-05-14T01:12:18;13.30;99.90
25914;DHT22;13718;50.922;5.346;2023-05-14T01:17:15;13.30;99.90
25914;DHT22;13718;50.922;5.346;2023-05-14T01:19:46;13.30;99.90
25914;DHT22;13718;50.922;5.346;2023-05-14T01:22:12;13.50;99.90
25914;DHT22;13718;50.922;5.346;2023-05-14T01:24:38;13.80;99.90
25914;DHT22;13718;50.922;5.346;2023-05-14T01:27:25;13.60;99.90
25914;DHT22;13718;50.922;5.346;2023-05-14T01:33:04;13.20;99.90
25914;DHT22;13718;50.922;5.346;2023-05-14T01:35:30;13.10;99.90
25914;DHT22;13718;50.922;5.346;2023-05-14T01:37:59;13.20;99.90
25914;DHT22;13718;50.922;5.346;2023-05-14T01:40:26;13.50;99.90
25914;DHT22;13718;50.922;5.346;2023-05-14T01:42:52;13.50;99.90
25914;DHT22;13718;50.922;5.346;2023-05-14T01:45:22;13.40;99.90
25914;DHT22;13718;50.922;5.346;2023-05-14T01:47:48;13.20;99.90
25914;DHT22;13718;50.922;5.346;2023-05-14T01:50:14;13.00;99.90
25914;DHT22;13718;50.922;5.346;2023-05-14T01:52:40;12.90;99.90
25914;DHT22;13718;50.922;5.346;2023-05-14T01:55:06;12.90;99.90
25914;DHT22;13718;50.922;5.346;2023-05-14T01:57:31;12.80;99.90
25914;DHT22;13718;50.922;5.346;2023-05-14T01:59:57;12.90;99.90
25914;DHT22;13718;50.922;5.346;2023-05-14T02:02:23;12.90;99.90
25914;DHT22;13718;50.922;5.346;2023-05-14T02:04:48;12.80;99.90
25914;DHT22;13718;50.922;5.346;2023-05-14T02:07:14;12.80;99.90
25914;DHT22;13718;50.922;5.346;2023-05-14T02:09:40;12.90;99.90
25914;DHT22;13718;50.922;5.346;2023-05-14T02:12:07;12.90;99.90
25914;DHT22;13718;50.922;5.346;2023-05-14T02:14:32;12.80;99.90
25914;DHT22;13718;50.922;5.346;2023-05-14T02:16:58;12.70;99.90
25914;DHT22;13718;50.922;5.346;2023-05-14T02:19:24;12.60;99.90
25914;DHT22;13718;50.922;5.346;2023-05-14T02:21:49;12.50;99.90
25914;DHT22;13718;50.922;5.346;2023-05-14T02:24:15;12.50;99.90
25914;DHT22;13718;50.922;5.346;2023-05-14T02:26:41;12.40;99.90
25914;DHT22;13718;50.922;5.346;2023-05-14T02:29:07;12.40;99.90
25914;DHT22;13718;50.922;5.346;2023-05-14T02:31:33;12.40;99.90
25914;DHT22;13718;50.922;5.346;2023-05-14T02:34:00;12.40;99.90
25914;DHT22;13718;50.922;5.346;2023-05-14T02:36:26;12.40;99.90
25914;DHT22;13718;50.922;5.346;2023-05-14T02:38:51;12.30;99.90
25914;DHT22;13718;50.922;5.346;2023-05-14T02:41:17;12.40;99.90
25914;DHT22;13718;50.922;5.346;2023-05-14T02:43:43;12.40;99.90
25914;DHT22;13718;50.922;5.346;2023-05-14T02:46:08;12.30;99.90
25914;DHT22;13718;50.922;5.346;2023-05-14T02:48:34;12.30;99.90
25914;DHT22;13718;50.922;5.346;2023-05-14T02:51:01;12.30;99.90
25914;DHT22;13718;50.922;5.346;2023-05-14T02:53:26;12.30;99.90
25914;DHT22;13718;50.922;5.346;2023-05-14T02:55:52;12.30;99.90
25914;DHT22;13718;50.922;5.346;2023-05-14T02:58:18;12.30;99.90
25914;DHT22;13718;50.922;5.346;2023-05-14T03:00:43;12.30;99.90
25914;DHT22;13718;50.922;5.346;2023-05-14T03:03:09;12.30;99.90
25914;DHT22;13718;50.922;5.346;2023-05-14T03:05:34;12.30;99.90
25914;DHT22;13718;50.922;5.346;2023-05-14T03:08:00;12.30;99.90
25914;DHT22;13718;50.922;5.346;2023-05-14T03:10:26;12.30;99.90
25914;DHT22;13718;50.922;5.346;2023-05-14T03:12:51;12.30;99.90
25914;DHT22;13718;50.922;5.346;2023-05-14T03:15:17;12.40;99.90
25914;DHT22;13718;50.922;5.346;2023-05-14T03:17:43;12.30;99.90
25914;DHT22;13718;50.922;5.346;2023-05-14T03:20:09;12.20;99.90
25914;DHT22;13718;50.922;5.346;2023-05-14T03:22:35;12.20;99.90
25914;DHT22;13718;50.922;5.346;2023-05-14T03:25:00;12.20;99.90
25914;DHT22;13718;50.922;5.346;2023-05-14T03:27:26;12.20;99.90
25914;DHT22;13718;50.922;5.346;2023-05-14T03:29:52;12.20;99.90
25914;DHT22;13718;50.922;5.346;2023-05-14T03:32:17;12.10;99.90
25914;DHT22;13718;50.922;5.346;2023-05-14T03:34:43;12.10;99.90
25914;DHT22;13718;50.922;5.346;2023-05-14T03:37:09;12.10;99.90
25914;DHT22;13718;50.922;5.346;2023-05-14T03:39:35;12.10;99.90
25914;DHT22;13718;50.922;5.346;2023-05-14T03:42:01;12.10;99.90
25914;DHT22;13718;50.922;5.346;2023-05-14T03:44:26;12.00;99.90
25914;DHT22;13718;50.922;5.346;2023-05-14T03:46:52;12.10;99.90
25914;DHT22;13718;50.922;5.346;2023-05-14T03:49:18;12.00;99.90
25914;DHT22;13718;50.922;5.346;2023-05-14T03:51:43;12.00;99.90
25914;DHT22;13718;50.922;5.346;2023-05-14T03:54:09;12.00;99.90
25914;DHT22;13718;50.922;5.346;2023-05-14T03:56:35;12.00;99.90
25914;DHT22;13718;50.922;5.346;2023-05-14T03:59:01;12.00;99.90
25914;DHT22;13718;50.922;5.346;2023-05-14T04:01:26;12.00;99.90
25914;DHT22;13718;50.922;5.346;2023-05-14T04:03:52;12.10;99.90
25914;DHT22;13718;50.922;5.346;2023-05-14T04:06:18;12.10;99.90
25914;DHT22;13718;50.922;5.346;2023-05-14T04:08:43;12.10;99.90
25914;DHT22;13718;50.922;5.346;2023-05-14T04:11:09;12.10;99.90
25914;DHT22;13718;50.922;5.346;2023-05-14T04:13:35;12.20;99.90
25914;DHT22;13718;50.922;5.346;2023-05-14T04:16:00;12.20;99.90
25914;DHT22;13718;50.922;5.346;2023-05-14T04:18:26;12.20;99.90
25914;DHT22;13718;50.922;5.346;2023-05-14T04:20:51;12.20;99.90
25914;DHT22;13718;50.922;5.346;2023-05-14T04:23:17;12.30;99.90
25914;DHT22;13718;50.922;5.346;2023-05-14T04:25:43;12.30;99.90
25914;DHT22;13718;50.922;5.346;2023-05-14T04:28:08;12.40;99.90
25914;DHT22;13718;50.922;5.346;2023-05-14T04:30:34;12.40;99.90
25914;DHT22;13718;50.922;5.346;2023-05-14T04:33:00;12.40;99.90
25914;DHT22;13718;50.922;5.346;2023-05-14T04:35:25;12.50;99.90
25914;DHT22;13718;50.922;5.346;2023-05-14T04:37:51;12.50;99.90
25914;DHT22;13718;50.922;5.346;2023-05-14T04:40:16;12.50;99.90
25914;DHT22;13718;50.922;5.346;2023-05-14T04:42:42;12.60;99.90
25914;DHT22;13718;50.922;5.346;2023-05-14T04:45:08;12.60;99.90
25914;DHT22;13718;50.922;5.346;2023-05-14T04:47:34;12.80;99.90
25914;DHT22;13718;50.922;5.346;2023-05-14T04:50:00;12.90;99.90
25914;DHT22;13718;50.922;5.346;2023-05-14T04:52:26;13.00;99.90
25914;DHT22;13718;50.922;5.346;2023-05-14T04:54:51;13.00;99.90
25914;DHT22;13718;50.922;5.346;2023-05-14T04:57:17;13.20;99.90
25914;DHT22;13718;50.922;5.346;2023-05-14T04:59:42;13.40;99.90
25914;DHT22;13718;50.922;5.346;2023-05-14T05:02:08;13.70;99.90
25914;DHT22;13718;50.922;5.346;2023-05-14T05:04:34;13.80;99.90
25914;DHT22;13718;50.922;5.346;2023-05-14T05:06:59;13.90;99.90
25914;DHT22;13718;50.922;5.346;2023-05-14T05:09:25;14.00;99.90
25914;DHT22;13718;50.922;5.346;2023-05-14T05:11:50;14.10;99.90
25914;DHT22;13718;50.922;5.346;2023-05-14T05:14:16;14.30;99.90
25914;DHT22;13718;50.922;5.346;2023-05-14T05:16:42;14.70;99.90
25914;DHT22;13718;50.922;5.346;2023-05-14T05:19:07;15.10;99.90
25914;DHT22;13718;50.922;5.346;2023-05-14T05:21:33;15.30;99.90
25914;DHT22;13718;50.922;5.346;2023-05-14T05:23:59;15.80;99.90
25914;DHT22;13718;50.922;5.346;2023-05-14T05:26:25;16.00;99.90
25914;DHT22;13718;50.922;5.346;2023-05-14T05:28:51;16.10;99.90
25914;DHT22;13718;50.922;5.346;2023-05-14T05:31:17;16.10;99.90
25914;DHT22;13718;50.922;5.346;2023-05-14T05:33:43;16.20;99.90
25914;DHT22;13718;50.922;5.346;2023-05-14T05:36:08;16.50;99.90
25914;DHT22;13718;50.922;5.346;2023-05-14T05:38:34;16.50;99.90
25914;DHT22;13718;50.922;5.346;2023-05-14T05:41:00;16.60;99.90
25914;DHT22;13718;50.922;5.346;2023-05-14T05:43:25;16.40;99.90
25914;DHT22;13718;50.922;5.346;2023-05-14T05:45:53;16.40;99.90
25914;DHT22;13718;50.922;5.346;2023-05-14T05:48:18;16.40;99.90
25914;DHT22;13718;50.922;5.346;2023-05-14T05:50:46;16.40;99.90
25914;DHT22;13718;50.922;5.346;2023-05-14T05:53:13;16.50;99.90
25914;DHT22;13718;50.922;5.346;2023-05-14T05:55:41;16.60;99.90
25914;DHT22;13718;50.922;5.346;2023-05-14T05:58:07;16.80;99.90
25914;DHT22;13718;50.922;5.346;2023-05-14T06:00:32;17.40;99.90
25914;DHT22;13718;50.922;5.346;2023-05-14T06:02:58;18.00;99.90
25914;DHT22;13718;50.922;5.346;2023-05-14T06:05:24;18.70;99.90
25914;DHT22;13718;50.922;5.346;2023-05-14T06:07:49;19.40;99.90
25914;DHT22;13718;50.922;5.346;2023-05-14T06:10:15;19.80;99.90
25914;DHT22;13718;50.922;5.346;2023-05-14T06:12:41;20.10;99.90
25914;DHT22;13718;50.922;5.346;2023-05-14T06:15:07;20.30;99.90
25914;DHT22;13718;50.922;5.346;2023-05-14T06:17:33;20.50;99.90
25914;DHT22;13718;50.922;5.346;2023-05-14T06:19:58;20.70;99.90
25914;DHT22;13718;50.922;5.346;2023-05-14T06:22:24;20.60;99.90
25914;DHT22;13718;50.922;5.346;2023-05-14T06:24:50;20.70;99.90
25914;DHT22;13718;50.922;5.346;2023-05-14T06:27:16;20.90;99.90
25914;DHT22;13718;50.922;5.346;2023-05-14T06:29:42;21.20;99.90
25914;DHT22;13718;50.922;5.346;2023-05-14T06:32:08;21.40;99.90
25914;DHT22;13718;50.922;5.346;2023-05-14T06:34:34;21.40;99.90
25914;DHT22;13718;50.922;5.346;2023-05-14T06:37:00;21.70;99.90
25914;DHT22;13718;50.922;5.346;2023-05-14T06:39:28;22.00;99.90
25914;DHT22;13718;50.922;5.346;2023-05-14T06:41:54;22.00;99.90
25914;DHT22;13718;50.922;5.346;2023-05-14T06:44:19;21.80;99.90
25914;DHT22;13718;50.922;5.346;2023-05-14T06:46:45;21.80;99.90
25914;DHT22;13718;50.922;5.346;2023-05-14T06:49:10;21.90;99.90
25914;DHT22;13718;50.922;5.346;2023-05-14T06:51:36;21.80;99.90
25914;DHT22;13718;50.922;5.346;2023-05-14T06:54:03;21.70;99.90
25914;DHT22;13718;50.922;5.346;2023-05-14T06:56:29;22.10;99.90
25914;DHT22;13718;50.922;5.346;2023-05-14T06:58:54;22.60;99.90
25914;DHT22;13718;50.922;5.346;2023-05-14T07:01:20;23.40;99.90
25914;DHT22;13718;50.922;5.346;2023-05-14T07:03:46;24.40;99.90
25914;DHT22;13718;50.922;5.346;2023-05-14T07:06:11;25.20;99.40
25914;DHT22;13718;50.922;5.346;2023-05-14T07:08:38;25.80;98.00
25914;DHT22;13718;50.922;5.346;2023-05-14T07:11:04;26.10;96.70
25914;DHT22;13718;50.922;5.346;2023-05-14T07:13:29;26.20;96.20
25914;DHT22;13718;50.922;5.346;2023-05-14T07:15:55;26.50;95.30
25914;DHT22;13718;50.922;5.346;2023-05-14T07:18:21;26.70;94.70
25914;DHT22;13718;50.922;5.346;2023-05-14T07:20:47;27.00;93.90
25914;DHT22;13718;50.922;5.346;2023-05-14T07:23:13;26.60;93.20
25914;DHT22;13718;50.922;5.346;2023-05-14T07:25:38;25.70;94.20
25914;DHT22;13718;50.922;5.346;2023-05-14T07:28:04;25.20;95.10
25914;DHT22;13718;50.922;5.346;2023-05-14T07:30:30;25.00;95.10
25914;DHT22;13718;50.922;5.346;2023-05-14T07:32:55;24.70;95.70
25914;DHT22;13718;50.922;5.346;2023-05-14T07:35:22;24.80;95.80
25914;DHT22;13718;50.922;5.346;2023-05-14T07:37:47;25.10;95.50
25914;DHT22;13718;50.922;5.346;2023-05-14T07:40:13;26.40;94.10
25914;DHT22;13718;50.922;5.346;2023-05-14T07:42:39;26.90;93.10
25914;DHT22;13718;50.922;5.346;2023-05-14T07:45:05;26.90;92.80
25914;DHT22;13718;50.922;5.346;2023-05-14T07:47:31;26.40;92.60
25914;DHT22;13718;50.922;5.346;2023-05-14T07:49:56;25.70;93.20
25914;DHT22;13718;50.922;5.346;2023-05-14T07:52:23;25.30;94.20
25914;DHT22;13718;50.922;5.346;2023-05-14T07:54:49;24.80;94.10
25914;DHT22;13718;50.922;5.346;2023-05-14T07:57:16;24.40;95.10
25914;DHT22;13718;50.922;5.346;2023-05-14T07:59:41;24.10;95.50
25914;DHT22;13718;50.922;5.346;2023-05-14T08:02:07;24.60;95.40
25914;DHT22;13718;50.922;5.346;2023-05-14T08:04:35;26.10;93.50
25914;DHT22;13718;50.922;5.346;2023-05-14T08:07:00;27.30;91.90
25914;DHT22;13718;50.922;5.346;2023-05-14T08:09:26;28.50;90.60
25914;DHT22;13718;50.922;5.346;2023-05-14T08:11:51;28.90;89.20
25914;DHT22;13718;50.922;5.346;2023-05-14T08:14:17;29.10;87.20
25914;DHT22;13718;50.922;5.346;2023-05-14T08:16:43;28.60;86.40
25914;DHT22;13718;50.922;5.346;2023-05-14T08:19:08;28.80;86.40
25914;DHT22;13718;50.922;5.346;2023-05-14T08:21:34;29.10;84.30
25914;DHT22;13718;50.922;5.346;2023-05-14T08:24:00;29.00;83.70
25914;DHT22;13718;50.922;5.346;2023-05-14T08:26:26;28.70;84.20
25914;DHT22;13718;50.922;5.346;2023-05-14T08:28:52;29.30;83.50
25914;DHT22;13718;50.922;5.346;2023-05-14T08:31:19;30.30;80.50
25914;DHT22;13718;50.922;5.346;2023-05-14T08:33:44;30.30;77.40
25914;DHT22;13718;50.922;5.346;2023-05-14T08:36:10;30.00;78.40
25914;DHT22;13718;50.922;5.346;2023-05-14T08:38:35;30.00;78.10
25914;DHT22;13718;50.922;5.346;2023-05-14T08:41:04;30.50;77.10
25914;DHT22;13718;50.922;5.346;2023-05-14T08:48:42;32.30;73.10
25914;DHT22;13718;50.922;5.346;2023-05-14T08:51:09;32.50;70.30
25914;DHT22;13718;50.922;5.346;2023-05-14T08:53:34;32.70;70.00
25914;DHT22;13718;50.922;5.346;2023-05-14T08:56:02;33.00;68.40
25914;DHT22;13718;50.922;5.346;2023-05-14T08:58:29;33.20;67.30
25914;DHT22;13718;50.922;5.346;2023-05-14T09:00:55;33.30;66.40
25914;DHT22;13718;50.922;5.346;2023-05-14T09:03:21;33.40;66.80
25914;DHT22;13718;50.922;5.346;2023-05-14T09:05:48;32.40;65.80
25914;DHT22;13718;50.922;5.346;2023-05-14T09:08:16;32.00;67.40
25914;DHT22;13718;50.922;5.346;2023-05-14T09:10:41;31.90;68.10
25914;DHT22;13718;50.922;5.346;2023-05-14T09:13:07;32.00;67.50
25914;DHT22;13718;50.922;5.346;2023-05-14T09:15:36;32.20;66.70
25914;DHT22;13718;50.922;5.346;2023-05-14T09:18:04;32.30;66.70
25914;DHT22;13718;50.922;5.346;2023-05-14T09:20:31;32.70;65.80
25914;DHT22;13718;50.922;5.346;2023-05-14T09:22:57;32.90;65.30
25914;DHT22;13718;50.922;5.346;2023-05-14T09:25:30;33.40;64.10
25914;DHT22;13718;50.922;5.346;2023-05-14T09:27:56;33.70;63.00
25914;DHT22;13718;50.922;5.346;2023-05-14T09:30:23;34.00;61.90
25914;DHT22;13718;50.922;5.346;2023-05-14T09:32:52;33.10;62.10
25914;DHT22;13718;50.922;5.346;2023-05-14T09:35:20;31.50;65.00
25914;DHT22;13718;50.922;5.346;2023-05-14T09:37:50;29.70;68.20
25914;DHT22;13718;50.922;5.346;2023-05-14T09:40:18;28.30;71.80
25914;DHT22;13718;50.922;5.346;2023-05-14T09:42:44;27.30;74.50
25914;DHT22;13718;50.922;5.346;2023-05-14T09:45:10;26.60;77.60
25914;DHT22;13718;50.922;5.346;2023-05-14T09:47:37;26.00;78.60
25914;DHT22;13718;50.922;5.346;2023-05-14T09:50:04;25.70;80.10
25914;DHT22;13718;50.922;5.346;2023-05-14T09:52:30;25.40;80.50
25914;DHT22;13718;50.922;5.346;2023-05-14T09:54:55;25.10;80.90
25914;DHT22;13718;50.922;5.346;2023-05-14T09:57:21;24.90;80.70
25914;DHT22;13718;50.922;5.346;2023-05-14T09:59:47;24.60;82.50
25914;DHT22;13718;50.922;5.346;2023-05-14T10:02:25;24.40;84.20
25914;DHT22;13718;50.922;5.346;2023-05-14T10:04:56;24.30;84.60
25914;DHT22;13718;50.922;5.346;2023-05-14T10:07:32;24.20;85.00
25914;DHT22;13718;50.922;5.346;2023-05-14T10:10:02;24.00;85.30
25914;DHT22;13718;50.922;5.346;2023-05-14T10:12:32;23.90;85.70
25914;DHT22;13718;50.922;5.346;2023-05-14T10:15:02;23.90;86.70
25914;DHT22;13718;50.922;5.346;2023-05-14T10:17:31;24.10;86.60
25914;DHT22;13718;50.922;5.346;2023-05-14T10:19:58;24.30;86.10
25914;DHT22;13718;50.922;5.346;2023-05-14T10:22:26;24.30;85.60
25914;DHT22;13718;50.922;5.346;2023-05-14T10:24:55;24.20;86.00
25914;DHT22;13718;50.922;5.346;2023-05-14T10:27:22;24.00;85.40
25914;DHT22;13718;50.922;5.346;2023-05-14T10:29:54;23.90;87.30
25914;DHT22;13718;50.922;5.346;2023-05-14T10:32:21;23.90;87.60
25914;DHT22;13718;50.922;5.346;2023-05-14T10:34:52;24.00;87.40
25914;DHT22;13718;50.922;5.346;2023-05-14T10:37:24;23.90;88.00
25914;DHT22;13718;50.922;5.346;2023-05-14T10:40:06;23.90;87.10
25914;DHT22;13718;50.922;5.346;2023-05-14T10:42:34;23.90;87.00
25914;DHT22;13718;50.922;5.346;2023-05-14T10:45:05;23.90;87.80
25914;DHT22;13718;50.922;5.346;2023-05-14T10:47:36;23.80;85.80
25914;DHT22;13718;50.922;5.346;2023-05-14T10:50:04;23.60;86.60
25914;DHT22;13718;50.922;5.346;2023-05-14T10:52:30;23.50;87.00
25914;DHT22;13718;50.922;5.346;2023-05-14T10:54:58;23.50;88.30
25914;DHT22;13718;50.922;5.346;2023-05-14T10:57:27;23.40;87.80
25914;DHT22;13718;50.922;5.346;2023-05-14T10:59:55;23.40;86.90
25914;DHT22;13718;50.922;5.346;2023-05-14T11:02:32;23.40;86.40
25914;DHT22;13718;50.922;5.346;2023-05-14T11:05:06;23.40;85.90
25914;DHT22;13718;50.922;5.346;2023-05-14T11:07:35;23.60;87.10
25914;DHT22;13718;50.922;5.346;2023-05-14T11:10:06;23.60;87.00
25914;DHT22;13718;50.922;5.346;2023-05-14T11:12:34;23.90;87.10
25914;DHT22;13718;50.922;5.346;2023-05-14T11:15:00;24.00;86.80
25914;DHT22;13718;50.922;5.346;2023-05-14T11:17:28;24.00;86.30
25914;DHT22;13718;50.922;5.346;2023-05-14T11:19:55;24.00;86.10
25914;DHT22;13718;50.922;5.346;2023-05-14T11:22:21;24.00;85.90
25914;DHT22;13718;50.922;5.346;2023-05-14T11:24:47;23.90;86.30
25914;DHT22;13718;50.922;5.346;2023-05-14T11:27:13;23.80;86.20
25914;DHT22;13718;50.922;5.346;2023-05-14T11:29:45;23.70;84.30
25914;DHT22;13718;50.922;5.346;2023-05-14T11:32:12;23.80;83.90
25914;DHT22;13718;50.922;5.346;2023-05-14T11:34:38;23.90;85.10
25914;DHT22;13718;50.922;5.346;2023-05-14T11:37:05;24.00;84.90
25914;DHT22;13718;50.922;5.346;2023-05-14T11:39:31;24.20;83.50
25914;DHT22;13718;50.922;5.346;2023-05-14T11:44:31;24.30;83.30
25914;DHT22;13718;50.922;5.346;2023-05-14T11:46:57;24.40;83.10
25914;DHT22;13718;50.922;5.346;2023-05-14T11:49:24;24.60;82.00
25914;DHT22;13718;50.922;5.346;2023-05-14T11:51:56;24.80;81.20
25914;DHT22;13718;50.922;5.346;2023-05-14T11:54:25;25.10;80.60
25914;DHT22;13718;50.922;5.346;2023-05-14T11:56:50;25.30;81.60
25914;DHT22;13718;50.922;5.346;2023-05-14T11:59:16;25.50;80.80
25914;DHT22;13718;50.922;5.346;2023-05-14T12:01:44;25.50;77.60
25914;DHT22;13718;50.922;5.346;2023-05-14T12:04:15;25.50;78.70
25914;DHT22;13718;50.922;5.346;2023-05-14T12:06:43;25.30;78.50
25914;DHT22;13718;50.922;5.346;2023-05-14T12:09:11;25.20;79.30
25914;DHT22;13718;50.922;5.346;2023-05-14T12:11:36;25.10;80.20
25914;DHT22;13718;50.922;5.346;2023-05-14T12:14:13;25.00;81.90
25914;DHT22;13718;50.922;5.346;2023-05-14T12:16:40;25.00;81.40
25914;DHT22;13718;50.922;5.346;2023-05-14T12:19:07;25.00;80.90
25914;DHT22;13718;50.922;5.346;2023-05-14T12:21:34;25.00;82.00
25914;DHT22;13718;50.922;5.346;2023-05-14T12:23:59;25.00;81.50
25914;DHT22;13718;50.922;5.346;2023-05-14T12:26:25;24.90;79.60
25914;DHT22;13718;50.922;5.346;2023-05-14T12:29:02;24.70;78.50
25914;DHT22;13718;50.922;5.346;2023-05-14T12:31:32;24.60;79.50
25914;DHT22;13718;50.922;5.346;2023-05-14T12:33:58;24.40;80.90
25914;DHT22;13718;50.922;5.346;2023-05-14T12:36:24;24.20;78.60
25914;DHT22;13718;50.922;5.346;2023-05-14T12:38:59;24.10;81.90
25914;DHT22;13718;50.922;5.346;2023-05-14T12:41:26;23.90;83.90
25914;DHT22;13718;50.922;5.346;2023-05-14T12:43:51;23.70;84.50
25914;DHT22;13718;50.922;5.346;2023-05-14T12:46:17;23.60;85.10
25914;DHT22;13718;50.922;5.346;2023-05-14T12:48:43;23.60;84.20
25914;DHT22;13718;50.922;5.346;2023-05-14T12:51:08;23.50;84.90
25914;DHT22;13718;50.922;5.346;2023-05-14T12:53:34;23.40;85.80
25914;DHT22;13718;50.922;5.346;2023-05-14T12:56:00;23.40;86.10
25914;DHT22;13718;50.922;5.346;2023-05-14T12:58:25;23.40;83.50
25914;DHT22;13718;50.922;5.346;2023-05-14T13:00:51;23.60;84.50
25914;DHT22;13718;50.922;5.346;2023-05-14T13:03:17;23.70;84.90
25914;DHT22;13718;50.922;5.346;2023-05-14T13:05:42;23.90;84.00
25914;DHT22;13718;50.922;5.346;2023-05-14T13:08:08;24.10;82.10
25914;DHT22;13718;50.922;5.346;2023-05-14T13:10:34;24.30;83.20
25914;DHT22;13718;50.922;5.346;2023-05-14T13:13:00;24.50;81.60
25914;DHT22;13718;50.922;5.346;2023-05-14T13:15:27;24.70;79.80
25914;DHT22;13718;50.922;5.346;2023-05-14T13:17:52;24.80;77.60
25914;DHT22;13718;50.922;5.346;2023-05-14T13:20:18;24.80;78.10
25914;DHT22;13718;50.922;5.346;2023-05-14T13:22:44;24.80;76.70
25914;DHT22;13718;50.922;5.346;2023-05-14T13:25:10;24.90;77.80
25914;DHT22;13718;50.922;5.346;2023-05-14T13:27:35;25.00;79.10
25914;DHT22;13718;50.922;5.346;2023-05-14T13:30:02;24.90;80.20
25914;DHT22;13718;50.922;5.346;2023-05-14T13:32:28;24.90;80.90
25914;DHT22;13718;50.922;5.346;2023-05-14T13:34:54;24.80;81.60
25914;DHT22;13718;50.922;5.346;2023-05-14T13:37:20;24.80;82.30
25914;DHT22;13718;50.922;5.346;2023-05-14T13:39:45;24.80;82.00
25914;DHT22;13718;50.922;5.346;2023-05-14T13:42:11;24.80;80.10
25914;DHT22;13718;50.922;5.346;2023-05-14T13:44:37;24.60;78.10
25914;DHT22;13718;50.922;5.346;2023-05-14T13:47:02;24.40;79.00
25914;DHT22;13718;50.922;5.346;2023-05-14T13:49:28;24.30;79.00
25914;DHT22;13718;50.922;5.346;2023-05-14T13:51:54;24.20;78.60
25914;DHT22;13718;50.922;5.346;2023-05-14T13:54:20;24.20;78.60
25914;DHT22;13718;50.922;5.346;2023-05-14T13:56:46;24.20;79.00
25914;DHT22;13718;50.922;5.346;2023-05-14T13:59:12;24.20;79.70
25914;DHT22;13718;50.922;5.346;2023-05-14T14:01:37;24.10;79.20
25914;DHT22;13718;50.922;5.346;2023-05-14T14:04:03;24.10;79.70
25914;DHT22;13718;50.922;5.346;2023-05-14T14:06:30;24.10;79.00
25914;DHT22;13718;50.922;5.346;2023-05-14T14:08:56;24.10;78.30
25914;DHT22;13718;50.922;5.346;2023-05-14T14:11:22;24.10;78.90
25914;DHT22;13718;50.922;5.346;2023-05-14T14:13:48;24.10;78.20
25914;DHT22;13718;50.922;5.346;2023-05-14T14:16:14;24.20;77.00
25914;DHT22;13718;50.922;5.346;2023-05-14T14:18:40;24.30;76.30
25914;DHT22;13718;50.922;5.346;2023-05-14T14:21:07;24.40;75.00
25914;DHT22;13718;50.922;5.346;2023-05-14T14:23:33;24.40;75.60
25914;DHT22;13718;50.922;5.346;2023-05-14T14:25:59;24.40;76.40
25914;DHT22;13718;50.922;5.346;2023-05-14T14:28:25;24.50;76.70
25914;DHT22;13718;50.922;5.346;2023-05-14T14:30:50;24.60;76.40
25914;DHT22;13718;50.922;5.346;2023-05-14T14:33:16;24.70;76.10
25914;DHT22;13718;50.922;5.346;2023-05-14T14:35:42;24.80;75.50
25914;DHT22;13718;50.922;5.346;2023-05-14T14:38:07;24.90;75.90
25914;DHT22;13718;50.922;5.346;2023-05-14T14:40:33;24.90;74.50
25914;DHT22;13718;50.922;5.346;2023-05-14T14:42:59;24.90;74.70
25914;DHT22;13718;50.922;5.346;2023-05-14T14:45:26;24.90;75.30
25914;DHT22;13718;50.922;5.346;2023-05-14T14:48:25;24.80;73.70
25914;DHT22;13718;50.922;5.346;2023-05-14T14:50:52;24.80;74.40
25914;DHT22;13718;50.922;5.346;2023-05-14T14:53:19;24.80;75.00
25914;DHT22;13718;50.922;5.346;2023-05-14T14:55:45;24.80;74.50
25914;DHT22;13718;50.922;5.346;2023-05-14T14:58:10;24.80;74.00
25914;DHT22;13718;50.922;5.346;2023-05-14T15:00:36;24.70;74.80
25914;DHT22;13718;50.922;5.346;2023-05-14T15:03:02;24.80;73.90
25914;DHT22;13718;50.922;5.346;2023-05-14T15:05:27;24.90;74.00
25914;DHT22;13718;50.922;5.346;2023-05-14T15:07:53;25.00;73.60
25914;DHT22;13718;50.922;5.346;2023-05-14T15:10:18;25.10;73.70
25914;DHT22;13718;50.922;5.346;2023-05-14T15:12:44;25.10;73.90
25914;DHT22;13718;50.922;5.346;2023-05-14T15:15:10;25.00;73.30
25914;DHT22;13718;50.922;5.346;2023-05-14T15:17:35;25.10;73.60
25914;DHT22;13718;50.922;5.346;2023-05-14T15:20:01;25.00;73.60
25914;DHT22;13718;50.922;5.346;2023-05-14T15:22:26;25.10;73.40
25914;DHT22;13718;50.922;5.346;2023-05-14T15:24:52;25.20;73.40
25914;DHT22;13718;50.922;5.346;2023-05-14T15:27:18;25.20;73.40
25914;DHT22;13718;50.922;5.346;2023-05-14T15:29:43;25.20;73.90
25914;DHT22;13718;50.922;5.346;2023-05-14T15:32:09;25.20;73.60
25914;DHT22;13718;50.922;5.346;2023-05-14T15:34:35;25.20;73.70
25914;DHT22;13718;50.922;5.346;2023-05-14T15:37:01;25.00;74.10
25914;DHT22;13718;50.922;5.346;2023-05-14T15:39:26;24.90;74.60
25914;DHT22;13718;50.922;5.346;2023-05-14T15:41:52;24.80;72.50
25914;DHT22;13718;50.922;5.346;2023-05-14T15:44:17;24.60;72.10